Time;durP1;ratioP1;P1;durP2;ratioP2;P2;SDS_P1;SDS_P2;PMS_P1;PMS_P2;Temp;Humidity;BMP_temperature;BMP_pressure;BME280_temperature;BME280_humidity;BME280_pressure;Samples;Min_cycle;Max_cycle;Signal;HPM_P1;HPM_P2
2023/05/02 00:01:23;;;;;;;5.47;5.07;;;;;;;10.28;100.00;63058.09;4988197;28;20204;-78
2023/05/02 00:03:50;;;;;;;6.47;5.13;;;;;;;10.27;100.00;63057.56;5007617;28;20302;-78
2023/05/02 00:06:17;;;;;;;5.57;5.18;;;;;;;10.09;100.00;63046.59;5007306;28;20528;-77
2023/05/02 00:08:45;;;;;;;6.50;5.00;;;;;;;10.15;100.00;63042.59;5004903;28;20226;-77
2023/05/02 00:11:13;;;;;;;5.95;5.55;;;;;;;10.03;100.00;63034.72;5008950;28;20215;-78
2023/05/02 00:13:40;;;;;;;6.25;5.78;;;;;;;10.11;100.00;63040.50;5007550;28;20226;-77
2023/05/02 00:16:07;;;;;;;8.13;5.13;;;;;;;10.09;100.00;63041.50;5004972;28;20211;-77
2023/05/02 00:18:36;;;;;;;5.60;5.20;;;;;;;9.80;100.00;63003.31;5005792;28;20242;-77
2023/05/02 00:21:04;;;;;;;6.13;5.35;;;;;;;9.86;100.00;63014.59;5007106;28;20213;-78
2023/05/02 00:23:31;;;;;;;8.13;5.25;;;;;;;9.91;100.00;63022.31;5001715;28;20263;-78
2023/05/02 00:25:58;;;;;;;6.47;5.78;;;;;;;9.84;100.00;63012.53;4992525;28;20215;-78
2023/05/02 00:28:25;;;;;;;5.53;4.97;;;;;;;9.94;100.00;63020.34;5009076;28;20582;-77
2023/05/02 00:30:53;;;;;;;6.30;5.70;;;;;;;9.94;100.00;63023.41;5008109;28;20319;-77
2023/05/02 00:33:20;;;;;;;5.60;4.95;;;;;;;9.99;100.00;63028.56;5006810;28;20223;-77
2023/05/02 00:35:50;;;;;;;6.00;5.60;;;;;;;10.07;100.00;63038.88;5000586;28;20203;-78
2023/05/02 00:38:17;;;;;;;6.07;5.63;;;;;;;10.08;100.00;63037.91;5006570;28;20250;-78
2023/05/02 00:40:45;;;;;;;6.05;5.57;;;;;;;10.17;100.00;63047.22;5004836;28;20271;-77
2023/05/02 00:43:12;;;;;;;5.40;4.97;;;;;;;10.20;100.00;63049.78;4993503;28;20282;-77
2023/05/02 00:45:40;;;;;;;6.00;5.60;;;;;;;10.25;100.00;63060.06;5006276;28;20266;-77
2023/05/02 00:48:08;;;;;;;5.78;5.32;;;;;;;10.23;100.00;63055.47;5007012;28;20253;-76
2023/05/02 00:50:39;;;;;;;5.75;5.25;;;;;;;10.26;100.00;63056.53;5006483;28;20222;-77
2023/05/02 00:53:08;;;;;;;7.05;5.47;;;;;;;10.25;100.00;63052.94;5001301;28;20227;-77
2023/05/02 00:55:36;;;;;;;5.57;5.10;;;;;;;10.30;100.00;63060.66;4992626;28;20354;-78
2023/05/02 00:58:07;;;;;;;6.72;5.65;;;;;;;10.29;100.00;63062.19;5005895;28;20440;-78
2023/05/02 01:00:47;;;;;;;6.10;5.57;;;;;;;10.29;100.00;63062.19;4999481;28;20455;-76
2023/05/02 01:03:28;;;;;;;6.35;5.85;;;;;;;10.22;100.00;63054.94;5003455;28;20336;-78
2023/05/02 01:06:03;;;;;;;6.90;6.13;;;;;;;10.32;100.00;63067.81;4988468;28;20227;-77
2023/05/02 01:08:39;;;;;;;5.82;5.38;;;;;;;10.34;100.00;63061.75;4991411;28;20239;-77
2023/05/02 01:11:15;;;;;;;6.63;6.03;;;;;;;10.35;100.00;63070.41;5008615;28;20262;-78
2023/05/02 01:13:45;;;;;;;5.65;5.18;;;;;;;10.33;100.00;63066.31;4990779;28;20227;-77
2023/05/02 01:16:14;;;;;;;5.75;5.35;;;;;;;10.35;100.00;63060.25;4988892;28;20214;-78
2023/05/02 01:18:43;;;;;;;6.15;5.55;;;;;;;10.33;100.00;63061.22;5003293;28;20219;-78
2023/05/02 01:21:12;;;;;;;5.97;5.38;;;;;;;10.43;100.00;63073.59;5005469;28;20540;-77
2023/05/02 01:23:46;;;;;;;5.65;5.15;;;;;;;10.48;100.00;63079.28;5004107;28;20294;-76
2023/05/02 01:26:20;;;;;;;5.45;5.05;;;;;;;10.42;100.00;63070.53;5003847;28;20225;-77
2023/05/02 01:28:59;;;;;;;6.40;6.00;;;;;;;10.44;100.00;63077.69;5002730;28;20219;-78
2023/05/02 01:31:31;;;;;;;6.53;5.88;;;;;;;10.39;100.00;63072.00;5003037;28;20192;-78
2023/05/02 01:34:00;;;;;;;5.30;4.90;;;;;;;10.43;100.00;63076.66;5009469;28;20359;-77
2023/05/02 01:36:30;;;;;;;6.43;5.88;;;;;;;10.47;100.00;63080.28;5004309;28;20225;-78
2023/05/02 01:38:59;;;;;;;7.47;6.72;;;;;;;10.46;100.00;63074.16;5006772;28;20223;-78
2023/05/02 01:41:29;;;;;;;6.28;5.80;;;;;;;10.38;100.00;63071.50;5005007;28;20223;-75
2023/05/02 01:43:59;;;;;;;7.60;6.10;;;;;;;10.42;100.00;63073.06;5003621;28;20235;-78
2023/05/02 01:46:30;;;;;;;5.32;4.93;;;;;;;10.35;100.00;63065.84;4987486;28;20481;-77
2023/05/02 01:48:59;;;;;;;6.10;5.60;;;;;;;10.44;100.00;63074.63;5003978;28;20204;-77
2023/05/02 01:51:30;;;;;;;6.45;5.88;;;;;;;10.44;100.00;63072.59;4995050;28;20362;-77
2023/05/02 01:54:00;;;;;;;5.22;4.93;;;;;;;10.39;100.00;63069.97;4989419;28;20270;-78
2023/05/02 01:56:31;;;;;;;6.00;5.45;;;;;;;10.41;100.00;63074.06;4989499;28;20433;-77
2023/05/02 01:59:02;;;;;;;6.22;5.63;;;;;;;10.52;100.00;63080.38;4991801;28;20391;-77
2023/05/02 02:01:30;;;;;;;5.93;5.43;;;;;;;10.45;100.00;63073.13;5004441;28;20407;-77
2023/05/02 02:03:58;;;;;;;12.40;5.50;;;;;;;10.46;100.00;63079.78;5004343;28;20290;-77
2023/05/02 02:06:27;;;;;;;7.18;5.53;;;;;;;10.55;100.00;63083.47;5004415;28;20223;-76
2023/05/02 02:08:55;;;;;;;6.53;5.93;;;;;;;10.60;100.00;63085.56;4998239;28;20219;-78
2023/05/02 02:11:27;;;;;;;5.75;5.30;;;;;;;10.56;100.00;63092.13;4991185;28;20200;-77
2023/05/02 02:14:05;;;;;;;6.22;5.70;;;;;;;10.62;100.00;63093.28;5003873;28;20294;-77
2023/05/02 02:16:35;;;;;;;5.65;5.25;;;;;;;10.61;100.00;63089.69;5003777;28;20207;-78
2023/05/02 02:19:07;;;;;;;6.38;5.15;;;;;;;10.60;100.00;63090.66;5005284;28;20203;-76
2023/05/02 02:21:37;;;;;;;6.82;6.22;;;;;;;10.61;100.00;63092.25;5001925;28;20270;-78
2023/05/02 02:24:06;;;;;;;6.22;5.72;;;;;;;10.65;100.00;63098.91;5008740;28;20235;-78
2023/05/02 02:26:34;;;;;;;5.47;5.18;;;;;;;10.60;100.00;63093.75;5006112;28;20203;-78
2023/05/02 02:29:03;;;;;;;5.80;5.40;;;;;;;10.59;100.00;63090.16;4991048;28;20207;-77
2023/05/02 02:31:32;;;;;;;6.82;6.13;;;;;;;10.57;100.00;63088.09;5003648;28;20203;-76
2023/05/02 02:33:59;;;;;;;5.85;5.45;;;;;;;10.62;100.00;63093.28;5008083;28;20238;-77
2023/05/02 02:36:33;;;;;;;5.85;5.45;;;;;;;10.63;100.00;63094.28;5004311;28;20227;-77
2023/05/02 02:39:11;;;;;;;6.32;5.82;;;;;;;10.51;100.00;63081.88;4995744;28;20246;-76
2023/05/02 02:41:44;;;;;;;5.80;5.40;;;;;;;10.62;100.00;63095.28;4997613;28;20222;-78
2023/05/02 02:44:24;;;;;;;6.13;5.63;;;;;;;10.71;100.00;63104.63;5006649;28;20270;-78
2023/05/02 02:47:01;;;;;;;6.82;6.22;;;;;;;10.64;100.00;63097.88;5002037;28;20492;-77
2023/05/02 02:49:35;;;;;;;6.32;5.82;;;;;;;10.69;100.00;63100.00;4991052;28;20558;-77
2023/05/02 02:52:07;;;;;;;5.90;5.40;;;;;;;10.66;100.00;63096.88;5005517;28;20536;-78
2023/05/02 02:54:40;;;;;;;6.65;6.05;;;;;;;10.63;100.00;63096.84;4988006;28;20192;-78
2023/05/02 02:57:16;;;;;;;7.35;6.65;;;;;;;10.63;100.00;63094.28;4996376;28;20234;-78
2023/05/02 02:59:57;;;;;;;7.68;6.97;;;;;;;10.57;100.00;63093.19;5006587;28;20183;-78
2023/05/02 03:02:28;;;;;;;7.00;6.50;;;;;;;10.54;100.00;63085.00;5006731;28;20227;-78
2023/05/02 03:04:57;;;;;;;6.38;5.88;;;;;;;10.48;100.00;63073.69;4998520;28;20282;-78
2023/05/02 03:07:28;;;;;;;10.38;6.72;;;;;;;10.48;100.00;63079.28;4999636;28;20435;-77
2023/05/02 03:09:55;;;;;;;7.25;6.55;;;;;;;10.43;100.00;63071.56;5004043;28;20206;-77
2023/05/02 03:12:23;;;;;;;7.35;6.75;;;;;;;10.42;100.00;63075.13;5005794;28;20225;-78
2023/05/02 03:14:52;;;;;;;7.90;6.75;;;;;;;10.40;100.00;63073.03;4997976;28;20416;-77
2023/05/02 03:17:19;;;;;;;7.05;6.38;;;;;;;10.35;100.00;63067.88;5005943;28;20243;-76
2023/05/02 03:19:46;;;;;;;6.93;6.43;;;;;;;10.37;100.00;63067.91;5011092;28;20200;-78
2023/05/02 03:22:13;;;;;;;6.40;5.95;;;;;;;10.30;100.00;63060.66;5007531;28;20231;-77
2023/05/02 03:24:40;;;;;;;6.68;6.18;;;;;;;10.34;100.00;63061.75;4993710;28;20232;-76
2023/05/02 03:27:07;;;;;;;7.32;6.72;;;;;;;10.35;100.00;63067.88;5008006;28;20540;-77
2023/05/02 03:29:35;;;;;;;6.85;6.35;;;;;;;10.37;100.00;63070.44;5004964;28;20294;-77
2023/05/02 03:32:04;;;;;;;7.13;6.43;;;;;;;10.37;100.00;63070.44;4999765;28;20219;-78
2023/05/02 03:34:31;;;;;;;7.53;6.45;;;;;;;10.30;100.00;63063.22;5007946;28;20226;-77
2023/05/02 03:36:58;;;;;;;7.80;6.45;;;;;;;10.34;100.00;63064.81;5007909;28;20219;-77
2023/05/02 03:39:26;;;;;;;7.25;6.65;;;;;;;10.42;100.00;63073.06;5006595;28;20210;-79
2023/05/02 03:41:53;;;;;;;7.85;7.05;;;;;;;10.41;100.00;63069.50;5006137;28;20231;-77
2023/05/02 03:44:20;;;;;;;7.10;6.40;;;;;;;10.47;100.00;63080.28;5007595;28;20242;-78
2023/05/02 03:46:48;;;;;;;7.07;6.55;;;;;;;10.55;100.00;63082.94;5008926;28;20203;-77
2023/05/02 03:49:18;;;;;;;6.90;6.32;;;;;;;10.60;100.00;63093.22;4995988;28;20275;-77
2023/05/02 03:51:45;;;;;;;7.07;6.43;;;;;;;10.63;100.00;63093.78;4988751;28;20204;-77
2023/05/02 03:54:12;;;;;;;7.68;6.97;;;;;;;10.67;100.00;63095.38;5000789;28;20222;-77
2023/05/02 03:56:39;;;;;;;7.13;6.55;;;;;;;10.74;100.00;63105.69;5007109;28;20204;-77
2023/05/02 03:59:07;;;;;;;7.80;7.15;;;;;;;10.80;100.00;63111.38;5009511;28;20204;-77
2023/05/02 04:01:35;;;;;;;7.82;7.13;;;;;;;10.84;100.00;63110.41;5002742;28;20196;-79
2023/05/02 04:04:02;;;;;;;8.30;7.60;;;;;;;10.94;100.00;63125.88;5002052;28;20333;-79
2023/05/02 04:06:31;;;;;;;7.60;7.00;;;;;;;10.92;100.00;63126.88;5003517;28;20212;-77
2023/05/02 04:08:58;;;;;;;7.47;6.88;;;;;;;11.06;100.00;63140.84;5006282;28;20203;-77
2023/05/02 04:11:27;;;;;;;7.93;7.22;;;;;;;11.04;100.00;63138.78;5006955;28;20261;-78
2023/05/02 04:13:54;;;;;;;7.95;7.32;;;;;;;11.04;100.00;63138.78;5005139;28;20227;-78
2023/05/02 04:16:21;;;;;;;7.30;6.78;;;;;;;11.03;100.00;63135.72;5004327;28;20211;-78
2023/05/02 04:18:48;;;;;;;7.60;6.93;;;;;;;11.04;100.00;63136.22;5007557;28;20378;-77
2023/05/02 04:21:15;;;;;;;8.18;7.43;;;;;;;11.05;100.00;63137.25;5011382;28;20211;-79
2023/05/02 04:23:44;;;;;;;7.05;6.47;;;;;;;10.98;100.00;63130.53;4994943;28;20544;-77
2023/05/02 04:26:10;;;;;;;7.25;6.65;;;;;;;11.05;100.00;63137.25;5009912;28;20404;-78
2023/05/02 04:28:38;;;;;;;7.38;6.68;;;;;;;11.08;100.00;63140.38;5010572;28;20333;-79
2023/05/02 04:31:06;;;;;;;7.32;6.72;;;;;;;11.08;100.00;63145.97;5005191;28;20196;-79
2023/05/02 04:33:33;;;;;;;10.13;6.82;;;;;;;10.98;100.00;63133.09;5006333;28;20287;-77
2023/05/02 04:36:01;;;;;;;8.02;7.28;;;;;;;10.95;100.00;63127.44;5006938;28;20203;-77
2023/05/02 04:38:28;;;;;;;8.75;7.80;;;;;;;11.06;100.00;63138.31;5009724;28;20226;-77
2023/05/02 04:40:56;;;;;;;8.38;6.85;;;;;;;10.95;100.00;63129.97;5010820;28;20199;-78
2023/05/02 04:43:23;;;;;;;7.03;6.43;;;;;;;11.04;100.00;63136.75;5009965;28;20223;-77
2023/05/02 04:45:50;;;;;;;6.53;5.93;;;;;;;11.18;100.00;63151.25;5011204;28;20231;-78
2023/05/02 04:48:17;;;;;;;8.38;6.82;;;;;;;11.10;100.00;63142.97;5010777;28;20282;-77
2023/05/02 04:50:45;;;;;;;7.45;6.80;;;;;;;11.16;100.00;63149.19;5002926;28;20207;-78
2023/05/02 04:53:13;;;;;;;7.82;6.55;;;;;;;11.29;100.00;63162.13;4999009;28;20278;-79
2023/05/02 04:55:41;;;;;;;6.85;6.25;;;;;;;11.29;100.00;63164.66;5009794;28;20563;-78
2023/05/02 04:58:10;;;;;;;7.53;6.18;;;;;;;11.43;100.00;63177.13;5008738;28;20243;-79
2023/05/02 05:00:38;;;;;;;6.18;5.70;;;;;;;11.52;100.00;63183.91;5000159;28;20211;-79
2023/05/02 05:03:08;;;;;;;8.45;5.90;;;;;;;11.72;100.00;63211.78;4992975;28;20220;-79
2023/05/02 05:05:35;;;;;;;6.50;5.38;;;;;;;11.77;100.00;63209.31;4993540;28;20235;-79
2023/05/02 05:08:02;;;;;;;7.50;5.32;;;;;;;11.96;99.67;63231.53;4991864;28;20443;-79
2023/05/02 05:10:30;;;;;;;5.65;5.13;;;;;;;12.04;98.35;63241.88;4989341;28;20211;-79
2023/05/02 05:12:57;;;;;;;5.60;5.10;;;;;;;11.88;99.57;63220.19;4991908;28;20247;-77
2023/05/02 05:15:26;;;;;;;5.55;5.05;;;;;;;11.91;98.64;63228.91;4989592;28;20208;-80
2023/05/02 05:17:53;;;;;;;5.50;5.00;;;;;;;11.98;98.91;63233.09;5000375;28;20303;-79
2023/05/02 05:20:21;;;;;;;6.50;5.43;;;;;;;12.09;98.25;63247.06;5007885;28;20282;-78
2023/05/02 05:22:49;;;;;;;5.50;4.97;;;;;;;12.03;98.87;63245.94;5008587;28;20234;-79
2023/05/02 05:25:18;;;;;;;5.43;4.95;;;;;;;12.24;98.33;63260.03;5007808;28;20254;-80
2023/05/02 05:27:46;;;;;;;4.55;4.25;;;;;;;12.35;98.33;63277.09;4990098;28;20224;-81
2023/05/02 05:30:13;;;;;;;5.40;5.10;;;;;;;12.43;97.22;63280.25;4988499;28;20604;-79
2023/05/02 05:32:42;;;;;;;7.00;5.35;;;;;;;12.48;95.30;63288.00;4989903;28;20240;-78
2023/05/02 05:35:10;;;;;;;4.97;4.60;;;;;;;12.84;93.74;63319.19;4988400;28;20390;-80
2023/05/02 05:37:38;;;;;;;5.50;5.10;;;;;;;12.89;93.21;63326.94;5003791;28;20294;-79
2023/05/02 05:40:06;;;;;;;5.85;5.38;;;;;;;13.15;91.97;63359.53;5008350;28;20246;-79
2023/05/02 05:42:33;;;;;;;6.32;5.68;;;;;;;13.27;90.01;63368.94;5008197;28;20559;-78
2023/05/02 05:45:01;;;;;;;4.85;4.47;;;;;;;13.18;87.92;63359.59;5008639;28;20231;-79
2023/05/02 05:47:28;;;;;;;5.88;4.97;;;;;;;13.27;84.70;63372.00;5010087;28;20226;-78
2023/05/02 05:49:57;;;;;;;5.18;4.78;;;;;;;13.33;84.49;63375.16;5010653;28;20272;-77
2023/05/02 05:52:24;;;;;;;5.18;4.78;;;;;;;13.16;86.07;63352.41;5009371;28;20246;-78
2023/05/02 05:54:55;;;;;;;5.40;4.88;;;;;;;13.16;84.94;63360.59;4997279;28;20206;-77
2023/05/02 05:57:22;;;;;;;5.75;4.70;;;;;;;13.27;85.28;63366.38;5009628;28;20220;-79
2023/05/02 05:59:50;;;;;;;5.95;4.38;;;;;;;13.26;85.24;63370.44;5009944;28;20211;-79
2023/05/02 06:02:18;;;;;;;4.13;3.83;;;;;;;13.24;83.07;63363.25;5007903;28;20223;-79
2023/05/02 06:04:46;;;;;;;4.80;4.35;;;;;;;13.38;82.77;63380.84;4994926;28;20232;-80
2023/05/02 06:07:16;;;;;;;5.10;4.70;;;;;;;13.40;82.12;63382.41;4994255;28;20224;-79
2023/05/02 06:09:43;;;;;;;5.20;4.70;;;;;;;13.56;81.29;63396.97;4992744;28;20227;-80
2023/05/02 06:12:11;;;;;;;4.63;4.32;;;;;;;13.68;78.64;63408.91;4993592;28;20246;-78
2023/05/02 06:14:38;;;;;;;4.38;4.00;;;;;;;13.54;75.88;63400.03;5010570;28;20203;-78
2023/05/02 06:17:07;;;;;;;4.35;4.05;;;;;;;13.63;76.70;63408.84;4995916;28;20258;-80
2023/05/02 06:19:34;;;;;;;4.90;4.40;;;;;;;13.85;76.11;63431.66;4991727;28;20200;-79
2023/05/02 06:22:02;;;;;;;3.95;3.75;;;;;;;13.96;75.76;63437.97;4991106;28;20216;-79
2023/05/02 06:24:31;;;;;;;4.15;3.85;;;;;;;14.12;75.21;63451.50;4991297;28;20255;-80
2023/05/02 06:26:58;;;;;;;4.53;4.15;;;;;;;14.35;72.38;63473.38;4991651;28;20279;-78
2023/05/02 06:29:25;;;;;;;4.65;4.18;;;;;;;14.36;70.03;63481.56;5002026;28;20215;-76
2023/05/02 06:31:55;;;;;;;4.63;4.22;;;;;;;14.25;69.23;63465.53;5006137;28;20229;-79
2023/05/02 06:34:23;;;;;;;4.15;3.92;;;;;;;14.27;68.65;63470.16;5007269;28;20278;-79
2023/05/02 06:36:55;;;;;;;4.65;4.25;;;;;;;14.21;68.03;63466.50;5005570;28;20381;-78
2023/05/02 06:39:22;;;;;;;3.63;3.42;;;;;;;14.41;68.27;63484.19;5008615;28;20188;-77
2023/05/02 06:41:51;;;;;;;3.97;3.67;;;;;;;14.45;66.51;63485.78;5007378;28;20222;-78
2023/05/02 06:44:18;;;;;;;4.10;3.80;;;;;;;14.48;65.24;63491.47;5008931;28;20250;-78
2023/05/02 06:46:45;;;;;;;3.72;3.53;;;;;;;14.24;65.53;63469.59;4999194;28;20212;-79
2023/05/02 06:49:12;;;;;;;4.85;3.38;;;;;;;14.35;65.62;63478.47;4998883;28;20547;-78
2023/05/02 06:51:39;;;;;;;4.55;4.07;;;;;;;14.50;66.50;63496.63;5006594;28;20229;-78
2023/05/02 06:54:07;;;;;;;4.60;3.80;;;;;;;14.72;64.64;63514.34;5006886;28;20266;-78
2023/05/02 06:56:34;;;;;;;3.65;3.45;;;;;;;14.73;63.92;63517.94;4993873;28;20203;-78
2023/05/02 06:59:04;;;;;;;3.88;3.35;;;;;;;14.76;65.06;63518.50;4989790;28;20196;-79
2023/05/02 07:01:31;;;;;;;4.20;3.90;;;;;;;14.91;64.99;63539.22;4994553;28;20417;-78
2023/05/02 07:03:58;;;;;;;3.75;3.45;;;;;;;14.88;62.54;63530.97;5006645;28;20199;-78
2023/05/02 07:06:25;;;;;;;3.75;3.53;;;;;;;14.85;63.67;63532.97;5002147;28;20239;-79
2023/05/02 07:08:53;;;;;;;4.22;3.83;;;;;;;15.00;63.93;63545.47;5002049;28;20219;-79
2023/05/02 07:11:22;;;;;;;3.50;3.30;;;;;;;15.16;62.37;63559.53;5006181;28;20227;-78
2023/05/02 07:13:49;;;;;;;3.33;3.20;;;;;;;15.27;61.97;63573.03;5005430;28;20273;-78
2023/05/02 07:16:19;;;;;;;4.40;4.10;;;;;;;15.31;60.42;63582.81;4986603;28;20207;-80
2023/05/02 07:18:46;;;;;;;4.28;3.97;;;;;;;15.36;60.45;63585.44;4992012;28;20204;-78
2023/05/02 07:21:13;;;;;;;6.32;5.70;;;;;;;15.42;60.97;63588.63;5004655;28;20275;-78
2023/05/02 07:23:40;;;;;;;7.20;4.05;;;;;;;15.47;58.49;63596.38;4999171;28;20220;-81
2023/05/02 07:26:07;;;;;;;5.03;4.55;;;;;;;15.62;59.35;63606.84;5004972;28;20270;-78
2023/05/02 07:28:34;;;;;;;8.00;4.25;;;;;;;15.70;59.10;63617.72;5009696;28;20243;-78
2023/05/02 07:31:02;;;;;;;3.80;3.50;;;;;;;15.92;58.53;63641.13;4989164;28;20220;-79
2023/05/02 07:33:30;;;;;;;4.00;3.10;;;;;;;16.01;57.77;63650.47;4998076;28;20239;-78
2023/05/02 07:35:57;;;;;;;6.63;4.93;;;;;;;16.05;57.83;63654.13;4989486;28;20210;-80
2023/05/02 07:38:24;;;;;;;4.05;3.42;;;;;;;16.27;57.58;63674.44;4987569;28;20247;-79
2023/05/02 07:40:51;;;;;;;3.92;3.50;;;;;;;16.25;57.08;63674.41;4995683;28;20412;-78
2023/05/02 07:43:18;;;;;;;3.55;3.00;;;;;;;16.17;56.46;63667.13;5007522;28;20223;-79
2023/05/02 07:45:46;;;;;;;3.50;3.20;;;;;;;16.32;57.25;63681.69;5008403;28;20230;-81
2023/05/02 07:48:13;;;;;;;4.47;3.28;;;;;;;16.48;56.69;63698.34;5006582;28;20249;-78
2023/05/02 07:50:41;;;;;;;3.13;2.92;;;;;;;16.64;57.45;63714.97;4994080;28;20203;-78
2023/05/02 07:53:09;;;;;;;3.50;2.80;;;;;;;16.83;55.57;63737.31;4999428;28;20259;-79
2023/05/02 07:55:37;;;;;;;3.53;3.20;;;;;;;16.75;56.12;63732.09;4998149;28;20233;-78
2023/05/02 07:58:04;;;;;;;3.10;2.85;;;;;;;16.89;56.16;63741.53;4997418;28;20223;-78
2023/05/02 08:00:31;;;;;;;3.42;3.22;;;;;;;16.83;54.81;63739.91;4993507;28;20199;-77
2023/05/02 08:02:57;;;;;;;3.20;3.00;;;;;;;16.59;54.97;63712.34;4996442;28;20227;-77
2023/05/02 08:05:24;;;;;;;4.95;3.88;;;;;;;16.74;55.22;63725.91;5007392;28;20241;-77
2023/05/02 08:07:53;;;;;;;3.35;3.08;;;;;;;16.91;55.50;63745.66;5004695;28;20226;-77
2023/05/02 08:12:59;;;;;;;3.25;3.05;;;;;;;17.01;54.38;63753.50;5128190;23;20239;-79
2023/05/02 08:15:27;;;;;;;3.53;3.33;;;;;;;17.07;54.99;63762.84;5020921;28;20202;-77
2023/05/02 08:17:54;;;;;;;3.60;3.30;;;;;;;17.28;55.58;63779.53;5022383;28;20328;-78
2023/05/02 08:20:22;;;;;;;2.78;2.58;;;;;;;17.51;53.10;63808.16;5027241;28;20217;-77
2023/05/02 08:22:50;;;;;;;3.17;2.97;;;;;;;17.59;52.89;63813.38;5026390;28;20226;-76
2023/05/02 08:25:18;;;;;;;4.07;3.78;;;;;;;17.51;51.63;63805.56;5030907;28;20233;-77
2023/05/02 08:27:46;;;;;;;4.45;3.35;;;;;;;17.30;53.11;63783.69;5026023;28;20240;-76
2023/05/02 08:30:13;;;;;;;3.30;3.05;;;;;;;17.23;51.73;63779.50;5029049;28;20261;-76
2023/05/02 08:32:41;;;;;;;5.15;4.75;;;;;;;17.30;53.17;63786.78;5027984;28;20218;-77
2023/05/02 08:35:09;;;;;;;5.25;3.58;;;;;;;17.48;52.68;63802.44;5020514;28;20206;-78
2023/05/02 08:37:36;;;;;;;3.75;3.45;;;;;;;17.80;50.93;63838.34;5026910;28;20288;-78
2023/05/02 08:40:04;;;;;;;3.92;3.33;;;;;;;17.93;51.17;63849.28;5027447;28;20213;-77
2023/05/02 08:42:34;;;;;;;3.20;2.90;;;;;;;18.13;51.12;63872.19;5023451;28;20231;-78
2023/05/02 08:45:01;;;;;;;3.17;2.95;;;;;;;18.33;49.87;63896.13;5014977;28;20437;-76
2023/05/02 08:47:35;;;;;;;2.92;2.60;;;;;;;18.36;49.27;63896.16;5024952;28;20221;-78
2023/05/02 08:50:04;;;;;;;2.95;2.75;;;;;;;18.36;48.49;63896.16;5025659;28;20224;-75
2023/05/02 08:52:32;;;;;;;3.00;2.90;;;;;;;18.26;49.42;63883.69;5027377;28;20233;-77
2023/05/02 08:55:01;;;;;;;5.10;2.75;;;;;;;18.48;49.98;63910.72;5022729;28;20226;-76
2023/05/02 08:57:30;;;;;;;2.88;2.67;;;;;;;18.49;49.11;63906.63;5020509;28;20237;-77
2023/05/02 08:59:58;;;;;;;3.20;2.90;;;;;;;18.54;49.67;63914.94;5018321;28;20506;-77
2023/05/02 09:02:42;;;;;;;5.32;2.70;;;;;;;18.64;48.05;63927.41;5017891;28;20226;-75
2023/05/02 09:05:12;;;;;;;2.75;2.65;;;;;;;18.63;48.29;63926.38;5016715;28;20232;-77
2023/05/02 09:07:47;;;;;;;8.45;2.85;;;;;;;18.61;47.70;63921.69;5015426;28;20301;-77
2023/05/02 09:10:15;;;;;;;2.67;2.45;;;;;;;18.73;47.76;63936.78;5017457;28;20201;-77
2023/05/02 09:12:43;;;;;;;3.08;2.80;;;;;;;18.76;48.42;63937.34;5015599;28;20292;-76
2023/05/02 09:15:13;;;;;;;4.93;4.45;;;;;;;18.83;47.04;63940.00;5018657;28;20205;-76
2023/05/02 09:17:44;;;;;;;3.75;2.83;;;;;;;18.94;46.48;63951.47;5016213;28;20211;-76
2023/05/02 09:20:12;;;;;;;4.55;4.15;;;;;;;19.11;45.94;63976.41;5015499;28;20220;-76
2023/05/02 09:22:39;;;;;;;4.40;2.42;;;;;;;19.17;47.09;63980.09;5017547;28;20222;-77
2023/05/02 09:25:07;;;;;;;3.50;2.33;;;;;;;19.22;45.84;63985.81;5016254;28;20676;-76
2023/05/02 09:27:51;;;;;;;3.50;2.35;;;;;;;18.94;46.72;63961.25;5014371;28;20264;-76
2023/05/02 09:30:24;;;;;;;2.97;2.60;;;;;;;18.97;46.63;63964.91;5015937;28;20748;-76
2023/05/02 09:32:54;;;;;;;2.40;2.30;;;;;;;19.12;46.47;63972.78;5009876;28;20219;-75
2023/05/02 09:35:23;;;;;;;2.70;2.53;;;;;;;19.30;46.24;63996.75;5014792;28;20506;-74
2023/05/02 09:37:54;;;;;;;2.58;2.35;;;;;;;19.36;46.67;63999.91;5015717;28;20222;-76
2023/05/02 09:40:22;;;;;;;2.60;2.47;;;;;;;19.30;44.35;63996.22;5014296;28;20257;-75
2023/05/02 09:42:49;;;;;;;5.18;2.50;;;;;;;19.24;44.28;63984.81;5013202;28;20221;-76
2023/05/02 09:45:25;;;;;;;3.03;2.83;;;;;;;19.35;45.85;63999.38;5017478;28;20202;-76
2023/05/02 09:47:53;;;;;;;3.67;3.38;;;;;;;19.41;44.65;64005.13;5015946;28;20226;-75
2023/05/02 09:50:35;;;;;;;2.50;2.30;;;;;;;19.60;44.13;64022.34;5017468;28;20266;-75
2023/05/02 09:53:03;;;;;;;3.17;2.20;;;;;;;19.66;42.89;64035.84;5017350;28;20238;-77
2023/05/02 09:55:31;;;;;;;1.70;1.60;;;;;;;19.61;43.76;64025.97;5015260;28;20208;-77
2023/05/02 09:57:58;;;;;;;4.45;2.63;;;;;;;19.80;45.19;64045.28;5013733;28;20237;-77
2023/05/02 10:00:41;;;;;;;2.80;2.60;;;;;;;20.00;44.50;64064.06;5019806;28;20273;-76
2023/05/02 10:03:08;;;;;;;4.57;2.00;;;;;;;19.92;42.64;64057.78;5014041;28;20545;-77
2023/05/02 10:05:38;;;;;;;2.72;2.55;;;;;;;19.87;41.59;64057.75;5016443;28;20243;-75
2023/05/02 10:08:07;;;;;;;2.70;2.50;;;;;;;19.99;42.05;64065.63;5017845;28;20218;-76
2023/05/02 10:10:37;;;;;;;2.35;2.20;;;;;;;19.87;42.34;64055.16;5016655;28;20405;-76
2023/05/02 10:13:06;;;;;;;2.33;2.13;;;;;;;19.91;41.82;64056.75;5014845;28;20245;-76
2023/05/02 10:15:34;;;;;;;2.50;2.30;;;;;;;20.09;43.34;64070.88;5012495;28;20198;-77
2023/05/02 10:18:13;;;;;;;3.33;1.73;;;;;;;20.25;42.46;64090.19;5015812;28;20218;-76
2023/05/02 10:20:44;;;;;;;2.33;2.13;;;;;;;20.35;40.76;64105.25;5014122;28;20303;-75
2023/05/02 10:23:13;;;;;;;2.50;2.22;;;;;;;20.50;41.15;64113.69;5017082;28;20218;-77
2023/05/02 10:25:40;;;;;;;2.65;2.08;;;;;;;20.50;40.59;64121.44;5013485;28;20229;-77
2023/05/02 10:28:10;;;;;;;2.55;1.83;;;;;;;20.45;39.50;64118.81;5010048;28;20218;-76
2023/05/02 10:30:39;;;;;;;2.28;2.17;;;;;;;20.55;40.02;64120.97;5013269;28;20371;-77
2023/05/02 10:33:07;;;;;;;1.95;1.85;;;;;;;20.52;40.52;64120.94;5017088;28;20222;-76
2023/05/02 10:35:39;;;;;;;3.55;2.13;;;;;;;20.63;41.15;64131.91;5018824;28;20194;-77
2023/05/02 10:38:07;;;;;;;2.28;2.10;;;;;;;20.68;39.44;64137.13;5012728;28;20536;-77
2023/05/02 10:40:34;;;;;;;2.55;2.15;;;;;;;20.71;40.88;64137.66;5012780;28;20207;-75
2023/05/02 10:43:03;;;;;;;2.15;1.83;;;;;;;20.65;39.52;64136.59;5008128;28;20614;-76
2023/05/02 10:45:35;;;;;;;3.22;2.45;;;;;;;20.40;39.60;64107.91;5018147;28;20198;-77
2023/05/02 10:48:21;;;;;;;1.95;1.88;;;;;;;20.43;39.78;64108.97;5018240;28;20218;-77
2023/05/02 10:50:50;;;;;;;2.00;1.90;;;;;;;20.35;39.65;64103.22;5011466;28;20210;-77
2023/05/02 10:53:29;;;;;;;2.92;1.90;;;;;;;20.55;39.75;64120.97;5015283;28;20328;-76
2023/05/02 10:56:21;;;;;;;4.78;2.08;;;;;;;20.46;39.55;64111.56;5014267;28;20479;-77
2023/05/02 10:58:49;;;;;;;2.33;1.80;;;;;;;20.72;39.86;64146.47;5018526;28;20279;-76
2023/05/02 11:01:43;;;;;;;1.70;1.70;;;;;;;21.08;38.91;64175.78;5015344;28;20233;-78
2023/05/02 11:04:12;;;;;;;2.42;2.00;;;;;;;21.15;38.34;64185.69;4976366;28;20217;-76
2023/05/02 11:07:12;;;;;;;2.03;1.92;;;;;;;20.90;37.00;64157.00;5011354;28;20234;-76
2023/05/02 11:09:39;;;;;;;2.10;1.90;;;;;;;21.11;38.89;64186.69;5011675;28;20387;-78
2023/05/02 11:12:07;;;;;;;1.83;1.73;;;;;;;20.72;38.78;64140.78;5013558;28;20238;-76
2023/05/02 11:14:48;;;;;;;2.25;2.03;;;;;;;20.94;40.48;64164.28;5016193;28;20390;-77
2023/05/02 11:17:16;;;;;;;2.13;2.03;;;;;;;21.25;38.77;64199.25;5011775;28;20250;-76
2023/05/02 11:20:28;;;;;;;2.25;2.10;;;;;;;21.46;37.89;64216.00;5017479;28;20205;-77
2023/05/02 11:23:01;;;;;;;3.08;2.30;;;;;;;21.39;38.80;64213.34;5016096;28;20283;-76
2023/05/02 11:25:33;;;;;;;2.25;2.15;;;;;;;21.39;38.91;64208.69;5017333;28;20218;-77
2023/05/02 11:28:01;;;;;;;3.80;2.08;;;;;;;21.34;40.08;64205.53;5013234;28;20243;-75
2023/05/02 11:30:47;;;;;;;2.30;2.20;;;;;;;21.63;37.75;64235.81;5017798;28;20198;-77
2023/05/02 11:33:16;;;;;;;2.03;1.92;;;;;;;21.75;37.09;64248.38;5013491;28;20399;-76
2023/05/02 11:35:45;;;;;;;1.95;1.85;;;;;;;21.74;37.70;64250.44;5014228;28;20226;-76
2023/05/02 11:38:16;;;;;;;2.20;1.95;;;;;;;21.74;38.59;64247.31;5014486;28;20569;-77
2023/05/02 11:40:51;;;;;;;3.28;2.00;;;;;;;21.74;37.96;64247.31;5015821;28;20281;-77
2023/05/02 11:43:21;;;;;;;2.60;2.17;;;;;;;22.01;37.52;64275.56;5017649;28;20373;-77